createdAt,value
2018-10-12T00:00:42.961Z,1014.67
2018-10-12T00:01:42.956Z,1014.71
2018-10-12T00:02:42.957Z,1014.70
2018-10-12T00:03:42.961Z,1014.68
2018-10-12T00:04:42.956Z,1014.66
2018-10-12T00:05:42.951Z,1014.67
2018-10-12T00:06:43.000Z,1014.71
2018-10-12T00:07:42.951Z,1014.70
2018-10-12T00:08:42.953Z,1014.71
2018-10-12T00:09:42.954Z,1014.72
2018-10-12T00:10:42.946Z,1014.73
2018-10-12T00:11:43.708Z,1014.73
2018-10-12T00:12:42.943Z,1014.73
2018-10-12T00:13:42.950Z,1014.78
2018-10-12T00:14:42.941Z,1014.75
2018-10-12T00:15:42.940Z,1014.71
2018-10-12T00:16:42.939Z,1014.71
2018-10-12T00:17:42.938Z,1014.71
2018-10-12T00:18:42.940Z,1014.73
2018-10-12T00:19:42.936Z,1014.70
2018-10-12T00:20:42.939Z,1014.70
2018-10-12T00:21:42.932Z,1014.71
2018-10-12T00:22:42.942Z,1014.75
2018-10-12T00:23:42.932Z,1014.74
2018-10-12T00:24:42.926Z,1014.74
2018-10-12T00:25:42.925Z,1014.73
2018-10-12T00:26:42.920Z,1014.70
2018-10-12T00:27:42.922Z,1014.71
2018-10-12T00:28:42.919Z,1014.67
2018-10-12T00:29:42.922Z,1014.66
2018-10-12T00:30:42.919Z,1014.67
2018-10-12T00:31:42.918Z,1014.65
2018-10-12T00:32:42.919Z,1014.70
2018-10-12T00:33:42.919Z,1014.69
2018-10-12T00:34:42.916Z,1014.69
2018-10-12T00:35:42.912Z,1014.73
2018-10-12T00:36:42.913Z,1014.70
2018-10-12T00:37:42.908Z,1014.73
2018-10-12T00:38:42.909Z,1014.75
2018-10-12T00:39:42.906Z,1014.75
2018-10-12T00:40:42.905Z,1014.77
2018-10-12T00:41:42.902Z,1014.83
2018-10-12T00:42:42.901Z,1014.80
2018-10-12T00:43:43.721Z,1014.78
2018-10-12T00:44:42.902Z,1014.82
2018-10-12T00:45:42.900Z,1014.82
2018-10-12T00:46:42.895Z,1014.82
2018-10-12T00:47:42.904Z,1014.87
2018-10-12T00:48:42.889Z,1014.84
2018-10-12T00:49:42.920Z,1014.86
2018-10-12T00:50:42.888Z,1014.88
2018-10-12T00:51:42.890Z,1014.88
2018-10-12T00:52:42.885Z,1014.85
2018-10-12T00:53:42.894Z,1014.89
2018-10-12T00:54:42.882Z,1014.89
2018-10-12T00:55:42.882Z,1014.85
2018-10-12T00:56:42.881Z,1014.89
2018-10-12T00:57:42.876Z,1014.88
2018-10-12T00:58:42.875Z,1014.87
2018-10-12T00:59:42.881Z,1014.89
2018-10-12T01:00:42.869Z,1014.90
2018-10-12T01:01:42.870Z,1014.88
2018-10-12T01:02:42.869Z,1014.92
2018-10-12T01:03:42.871Z,1014.92
2018-10-12T01:04:42.863Z,1014.89
2018-10-12T01:05:42.864Z,1014.86
2018-10-12T01:06:42.928Z,1014.92
2018-10-12T01:07:42.861Z,1014.92
2018-10-12T01:08:42.861Z,1014.86
2018-10-12T01:09:42.864Z,1014.90
2018-10-12T01:10:42.857Z,1014.86
2018-10-12T01:11:42.862Z,1014.88
2018-10-12T01:12:42.854Z,1014.88
2018-10-12T01:13:42.847Z,1014.82
2018-10-12T01:14:42.846Z,1014.88
2018-10-12T01:15:42.848Z,1014.90
2018-10-12T01:16:42.845Z,1014.93
2018-10-12T01:17:42.845Z,1014.90
2018-10-12T01:18:42.843Z,1014.94
2018-10-12T01:19:42.846Z,1014.92
2018-10-12T01:20:42.842Z,1014.96
2018-10-12T01:21:42.835Z,1014.92
2018-10-12T01:22:42.836Z,1014.96
2018-10-12T01:23:42.833Z,1014.96
2018-10-12T01:24:42.836Z,1014.96
2018-10-12T01:25:42.825Z,1014.97
2018-10-12T01:26:42.826Z,1014.99
2018-10-12T01:27:42.829Z,1014.97
2018-10-12T01:28:42.825Z,1014.97
2018-10-12T01:29:42.826Z,1014.95
2018-10-12T01:30:42.822Z,1014.99
2018-10-12T01:31:42.819Z,1014.96
2018-10-12T01:32:42.823Z,1014.94
2018-10-12T01:33:42.814Z,1014.95
2018-10-12T01:34:42.814Z,1014.96
2018-10-12T01:35:42.814Z,1014.94
2018-10-12T01:36:42.813Z,1014.94
2018-10-12T01:37:42.810Z,1014.97
2018-10-12T01:38:42.808Z,1014.97
2018-10-12T01:39:42.804Z,1015.00
2018-10-12T01:40:42.800Z,1015.04
2018-10-12T01:41:42.808Z,1015.02
2018-10-12T01:42:42.798Z,1015.01
2018-10-12T01:43:42.798Z,1015.05
2018-10-12T01:44:42.796Z,1015.04
2018-10-12T01:45:42.800Z,1015.01
2018-10-12T01:46:42.788Z,1015.04
2018-10-12T01:47:42.789Z,1015.03
2018-10-12T01:48:42.791Z,1015.08
2018-10-12T01:49:42.781Z,1015.06
2018-10-12T01:50:42.790Z,1015.07
2018-10-12T01:51:42.790Z,1015.07
2018-10-12T01:52:42.779Z,1015.11
2018-10-12T01:53:42.777Z,1015.11
2018-10-12T01:54:42.774Z,1015.08
2018-10-12T01:55:42.772Z,1015.11
2018-10-12T01:56:42.769Z,1015.12
2018-10-12T01:57:42.767Z,1015.12
2018-10-12T01:58:42.764Z,1015.14
2018-10-12T01:59:42.765Z,1015.15
2018-10-12T02:00:42.761Z,1015.11
2018-10-12T02:01:42.762Z,1015.13
2018-10-12T02:02:42.758Z,1015.11
2018-10-12T02:03:42.759Z,1015.16
2018-10-12T02:04:42.758Z,1015.14
2018-10-12T02:05:42.749Z,1015.10
2018-10-12T02:06:42.750Z,1015.08
2018-10-12T02:07:42.755Z,1015.09
2018-10-12T02:08:42.749Z,1015.12
2018-10-12T02:09:42.745Z,1015.15
2018-10-12T02:10:42.753Z,1015.15
2018-10-12T02:11:42.748Z,1015.20
2018-10-12T02:12:42.755Z,1015.21
2018-10-12T02:13:42.736Z,1015.26
2018-10-12T02:14:42.729Z,1015.25
2018-10-12T02:15:42.733Z,1015.26
2018-10-12T02:16:42.731Z,1015.25
2018-10-12T02:17:42.728Z,1015.27
2018-10-12T02:18:42.728Z,1015.24
2018-10-12T02:19:42.735Z,1015.23
2018-10-12T02:20:42.721Z,1015.19
2018-10-12T02:21:42.717Z,1015.19
2018-10-12T02:22:42.725Z,1015.18
2018-10-12T02:23:42.718Z,1015.18
2018-10-12T02:24:42.710Z,1015.21
2018-10-12T02:25:42.710Z,1015.19
2018-10-12T02:26:42.707Z,1015.22
2018-10-12T02:27:42.710Z,1015.19
2018-10-12T02:28:42.712Z,1015.21
2018-10-12T02:29:42.700Z,1015.20
2018-10-12T02:30:42.699Z,1015.18
2018-10-12T02:31:42.701Z,1015.19
2018-10-12T02:32:42.692Z,1015.19
2018-10-12T02:33:42.691Z,1015.19
2018-10-12T02:34:42.699Z,1015.19
2018-10-12T02:35:42.695Z,1015.19
2018-10-12T02:36:42.697Z,1015.21
2018-10-12T02:37:42.683Z,1015.21
2018-10-12T02:38:42.713Z,1015.23
2018-10-12T02:39:42.681Z,1015.19
2018-10-12T02:40:42.681Z,1015.26
2018-10-12T02:41:42.679Z,1015.28
2018-10-12T02:42:42.675Z,1015.27
2018-10-12T02:43:42.672Z,1015.34
2018-10-12T02:44:42.666Z,1015.36
2018-10-12T02:45:42.668Z,1015.35
2018-10-12T02:46:42.668Z,1015.35
2018-10-12T02:47:42.662Z,1015.35
2018-10-12T02:48:42.663Z,1015.37
2018-10-12T02:49:42.660Z,1015.35
2018-10-12T02:50:42.653Z,1015.36
2018-10-12T02:51:42.651Z,1015.36
2018-10-12T02:52:42.648Z,1015.35
2018-10-12T02:53:42.645Z,1015.33
2018-10-12T02:54:42.652Z,1015.35
2018-10-12T02:55:42.641Z,1015.35
2018-10-12T02:56:42.639Z,1015.36
2018-10-12T02:57:42.647Z,1015.34
2018-10-12T02:58:42.636Z,1015.39
2018-10-12T02:59:42.628Z,1015.37
2018-10-12T03:00:42.628Z,1015.36
2018-10-12T03:01:42.627Z,1015.39
2018-10-12T03:02:42.632Z,1015.38
2018-10-12T03:03:42.620Z,1015.38
2018-10-12T03:04:42.619Z,1015.40
2018-10-12T03:05:42.618Z,1015.40
2018-10-12T03:06:42.612Z,1015.37
2018-10-12T03:07:42.612Z,1015.40
2018-10-12T03:08:42.613Z,1015.42
2018-10-12T03:09:42.606Z,1015.45
2018-10-12T03:10:42.604Z,1015.46
2018-10-12T03:11:42.607Z,1015.44
2018-10-12T03:12:42.596Z,1015.45
2018-10-12T03:13:42.596Z,1015.45
2018-10-12T03:14:42.596Z,1015.43
2018-10-12T03:15:42.594Z,1015.45
2018-10-12T03:16:42.593Z,1015.43
2018-10-12T03:17:42.588Z,1015.45
2018-10-12T03:18:42.585Z,1015.45
2018-10-12T03:19:42.590Z,1015.46
2018-10-12T03:20:42.577Z,1015.46
2018-10-12T03:21:42.578Z,1015.47
2018-10-12T03:22:42.575Z,1015.46
2018-10-12T03:23:42.574Z,1015.50
2018-10-12T03:24:42.570Z,1015.51
2018-10-12T03:25:42.564Z,1015.51
2018-10-12T03:26:42.561Z,1015.44
2018-10-12T03:27:42.564Z,1015.45
2018-10-12T03:28:42.555Z,1015.47
2018-10-12T03:29:42.556Z,1015.43
2018-10-12T03:30:42.556Z,1015.40
2018-10-12T03:31:42.546Z,1015.42
2018-10-12T03:32:42.547Z,1015.42
2018-10-12T03:33:42.549Z,1015.45
2018-10-12T03:34:42.541Z,1015.50
2018-10-12T03:35:42.538Z,1015.46
2018-10-12T03:36:42.538Z,1015.47
2018-10-12T03:37:42.535Z,1015.42
2018-10-12T03:38:42.559Z,1015.42
2018-10-12T03:39:42.532Z,1015.42
2018-10-12T03:40:42.530Z,1015.42
2018-10-12T03:41:42.524Z,1015.44
2018-10-12T03:42:42.517Z,1015.43
2018-10-12T03:43:42.518Z,1015.43
2018-10-12T03:44:42.519Z,1015.45
2018-10-12T03:45:42.510Z,1015.45
2018-10-12T03:46:42.509Z,1015.44
2018-10-12T03:47:42.522Z,1015.45
2018-10-12T03:48:42.505Z,1015.51
2018-10-12T03:49:42.508Z,1015.50
2018-10-12T03:50:42.501Z,1015.51
2018-10-12T03:51:42.500Z,1015.52
2018-10-12T03:52:42.498Z,1015.56
2018-10-12T03:53:42.488Z,1015.55
2018-10-12T03:54:42.493Z,1015.59
2018-10-12T03:55:42.486Z,1015.63
2018-10-12T03:56:42.487Z,1015.65
2018-10-12T03:57:42.482Z,1015.67
2018-10-12T03:58:42.478Z,1015.67
2018-10-12T03:59:42.475Z,1015.71
2018-10-12T04:00:42.474Z,1015.68
2018-10-12T04:01:42.470Z,1015.67
2018-10-12T04:02:42.517Z,1015.73
2018-10-12T04:03:42.468Z,1015.72
2018-10-12T04:04:42.463Z,1015.72
2018-10-12T04:05:42.458Z,1015.70
2018-10-12T04:06:42.455Z,1015.72
2018-10-12T04:07:42.455Z,1015.69
2018-10-12T04:08:42.452Z,1015.69
2018-10-12T04:09:42.447Z,1015.68
2018-10-12T04:10:42.452Z,1015.69
2018-10-12T04:11:42.441Z,1015.68
2018-10-12T04:12:42.560Z,1015.73
2018-10-12T04:13:42.440Z,1015.71
2018-10-12T04:14:42.480Z,1015.70
2018-10-12T04:15:42.432Z,1015.74
2018-10-12T04:16:42.426Z,1015.75
2018-10-12T04:17:42.420Z,1015.75
2018-10-12T04:18:42.425Z,1015.73
2018-10-12T04:19:42.425Z,1015.74
2018-10-12T04:20:42.413Z,1015.70
2018-10-12T04:21:42.413Z,1015.66
2018-10-12T04:22:42.409Z,1015.71
2018-10-12T04:23:42.424Z,1015.69
2018-10-12T04:24:42.410Z,1015.72
2018-10-12T04:25:42.412Z,1015.75
2018-10-12T04:26:42.397Z,1015.77
2018-10-12T04:27:42.401Z,1015.80
2018-10-12T04:28:42.395Z,1015.82
2018-10-12T04:29:42.399Z,1015.80
2018-10-12T04:30:42.391Z,1015.81
2018-10-12T04:31:42.400Z,1015.77
2018-10-12T04:32:42.377Z,1015.79
2018-10-12T04:33:42.375Z,1015.80
2018-10-12T04:34:42.379Z,1015.79
2018-10-12T04:35:42.395Z,1015.85
2018-10-12T04:36:42.380Z,1015.82
2018-10-12T04:37:42.368Z,1015.90
2018-10-12T04:38:42.365Z,1015.90
2018-10-12T04:39:42.360Z,1015.95
2018-10-12T04:40:42.354Z,1016.01
2018-10-12T04:41:42.357Z,1015.97
2018-10-12T04:42:42.357Z,1015.99
2018-10-12T04:43:42.362Z,1016.00
2018-10-12T04:44:42.346Z,1016.01
2018-10-12T04:45:42.349Z,1016.00
2018-10-12T04:46:42.389Z,1016.01
2018-10-12T04:47:42.341Z,1016.02
2018-10-12T04:48:42.336Z,1016.01
2018-10-12T04:49:42.329Z,1016.02
2018-10-12T04:50:42.334Z,1016.04
2018-10-12T04:51:42.330Z,1016.04
2018-10-12T04:52:42.318Z,1016.04
2018-10-12T04:53:42.379Z,1016.09
2018-10-12T04:54:42.313Z,1016.05
2018-10-12T04:55:42.314Z,1016.05
2018-10-12T04:56:42.308Z,1016.04
2018-10-12T04:57:42.314Z,1016.08
2018-10-12T04:58:42.309Z,1016.05
2018-10-12T04:59:42.302Z,1016.08
2018-10-12T05:00:42.335Z,1016.06
2018-10-12T05:01:42.293Z,1016.08
2018-10-12T05:02:42.293Z,1016.06
2018-10-12T05:03:42.293Z,1016.09
2018-10-12T05:04:42.286Z,1016.07
2018-10-12T05:05:42.278Z,1016.12
2018-10-12T05:06:42.283Z,1016.10
2018-10-12T05:07:42.283Z,1016.12
2018-10-12T05:08:42.271Z,1016.14
2018-10-12T05:09:42.795Z,1016.13
2018-10-12T05:10:42.265Z,1016.14
2018-10-12T05:11:42.278Z,1016.10
2018-10-12T05:12:42.260Z,1016.15
2018-10-12T05:13:42.259Z,1016.13
2018-10-12T05:14:42.254Z,1016.14
2018-10-12T05:15:42.251Z,1016.16
2018-10-12T05:16:42.255Z,1016.15
2018-10-12T05:17:42.243Z,1016.18
2018-10-12T05:18:42.244Z,1016.17
2018-10-12T05:19:42.237Z,1016.21
2018-10-12T05:20:42.232Z,1016.20
2018-10-12T05:21:42.230Z,1016.21
2018-10-12T05:22:42.231Z,1016.28
2018-10-12T05:23:42.226Z,1016.29
2018-10-12T05:24:42.224Z,1016.27
2018-10-12T05:25:42.223Z,1016.36
2018-10-12T05:26:42.216Z,1016.34
2018-10-12T05:27:42.211Z,1016.32
2018-10-12T05:28:42.211Z,1016.36
2018-10-12T05:29:42.203Z,1016.38
2018-10-12T05:30:42.205Z,1016.37
2018-10-12T05:31:42.199Z,1016.39
2018-10-12T05:32:42.195Z,1016.41
2018-10-12T05:33:42.192Z,1016.41
2018-10-12T05:34:42.187Z,1016.40
2018-10-12T05:35:42.185Z,1016.41
2018-10-12T05:36:42.181Z,1016.42
2018-10-12T05:37:42.176Z,1016.43
2018-10-12T05:38:42.172Z,1016.41
2018-10-12T05:39:42.170Z,1016.44
2018-10-12T05:40:42.168Z,1016.43
2018-10-12T05:41:42.168Z,1016.44
2018-10-12T05:42:42.215Z,1016.44
2018-10-12T05:43:42.219Z,1016.51
2018-10-12T05:44:42.156Z,1016.50
2018-10-12T05:45:42.149Z,1016.54
2018-10-12T05:46:42.147Z,1016.49
2018-10-12T05:47:42.143Z,1016.50
2018-10-12T05:48:42.183Z,1016.56
2018-10-12T05:49:42.138Z,1016.53
2018-10-12T05:50:42.135Z,1016.56
2018-10-12T05:51:42.132Z,1016.58
2018-10-12T05:52:42.132Z,1016.58
2018-10-12T05:53:42.126Z,1016.58
2018-10-12T05:54:42.128Z,1016.64
2018-10-12T05:55:42.145Z,1016.64
2018-10-12T05:56:42.108Z,1016.64
2018-10-12T05:57:42.125Z,1016.65
2018-10-12T05:58:42.101Z,1016.67
2018-10-12T05:59:42.102Z,1016.71
2018-10-12T06:00:42.097Z,1016.71
2018-10-12T06:01:42.092Z,1016.70
2018-10-12T06:02:42.096Z,1016.70
2018-10-12T06:03:42.092Z,1016.74
2018-10-12T06:04:42.090Z,1016.73
2018-10-12T06:05:42.081Z,1016.74
2018-10-12T06:06:42.077Z,1016.76
2018-10-12T06:07:42.811Z,1016.75
2018-10-12T06:08:42.072Z,1016.76
2018-10-12T06:09:42.175Z,1016.76
2018-10-12T06:10:42.066Z,1016.82
2018-10-12T06:11:42.065Z,1016.82
2018-10-12T06:12:42.061Z,1016.85
2018-10-12T06:13:42.057Z,1016.87
2018-10-12T06:14:42.053Z,1016.84
2018-10-12T06:15:42.132Z,1016.84
2018-10-12T06:16:42.045Z,1016.87
2018-10-12T06:17:42.047Z,1016.86
2018-10-12T06:18:42.041Z,1016.83
2018-10-12T06:19:42.038Z,1016.84
2018-10-12T06:20:42.028Z,1016.85
2018-10-12T06:21:42.079Z,1016.86
2018-10-12T06:22:42.025Z,1016.81
2018-10-12T06:23:42.023Z,1016.82
2018-10-12T06:24:42.026Z,1016.82
2018-10-12T06:25:42.015Z,1016.83
2018-10-12T06:26:42.026Z,1016.83
2018-10-12T06:27:42.015Z,1016.84
2018-10-12T06:28:42.008Z,1016.89
2018-10-12T06:29:42.009Z,1016.90
2018-10-12T06:30:42.002Z,1016.88
2018-10-12T06:31:41.995Z,1016.88
2018-10-12T06:32:42.032Z,1016.90
2018-10-12T06:33:41.990Z,1016.91
2018-10-12T06:34:41.987Z,1016.85
2018-10-12T06:35:41.990Z,1016.92
2018-10-12T06:36:41.979Z,1016.91
2018-10-12T06:37:41.977Z,1016.94
2018-10-12T06:38:41.984Z,1016.94
2018-10-12T06:39:41.969Z,1016.96
2018-10-12T06:40:42.006Z,1016.96
2018-10-12T06:41:42.131Z,1016.99
2018-10-12T06:42:41.960Z,1017.01
2018-10-12T06:43:41.963Z,1017.01
2018-10-12T06:44:41.958Z,1017.01
2018-10-12T06:45:41.952Z,1017.03
2018-10-12T06:46:42.084Z,1017.05
2018-10-12T06:47:41.949Z,1017.08
2018-10-12T06:48:41.943Z,1017.10
2018-10-12T06:49:41.947Z,1017.09
2018-10-12T06:50:41.937Z,1017.11
2018-10-12T06:51:41.938Z,1017.11
2018-10-12T06:52:41.929Z,1017.11
2018-10-12T06:53:41.982Z,1017.10
2018-10-12T06:54:41.940Z,1017.11
2018-10-12T06:55:41.923Z,1017.11
2018-10-12T06:56:41.924Z,1017.13
2018-10-12T06:57:41.925Z,1017.11
2018-10-12T06:58:41.918Z,1017.11
2018-10-12T06:59:41.922Z,1017.12
2018-10-12T07:00:41.914Z,1017.16
2018-10-12T07:01:41.908Z,1017.15
2018-10-12T07:02:41.905Z,1017.17
2018-10-12T07:03:41.910Z,1017.16
2018-10-12T07:04:41.900Z,1017.15
2018-10-12T07:05:41.946Z,1017.18
2018-10-12T07:06:41.895Z,1017.25
2018-10-12T07:07:41.896Z,1017.27
2018-10-12T07:08:41.889Z,1017.32
2018-10-12T07:09:41.890Z,1017.39
2018-10-12T07:10:41.892Z,1017.44
2018-10-12T07:11:41.884Z,1017.48
2018-10-12T07:12:41.880Z,1017.51
2018-10-12T07:13:41.905Z,1017.52
2018-10-12T07:14:41.876Z,1017.49
2018-10-12T07:15:41.872Z,1017.46
2018-10-12T07:16:41.871Z,1017.47
2018-10-12T07:17:41.874Z,1017.45
2018-10-12T07:18:41.868Z,1017.43
2018-10-12T07:19:41.939Z,1017.43
2018-10-12T07:20:41.860Z,1017.42
2018-10-12T07:21:41.858Z,1017.41
2018-10-12T07:22:41.855Z,1017.44
2018-10-12T07:23:41.850Z,1017.47
2018-10-12T07:24:41.851Z,1017.42
2018-10-12T07:25:41.917Z,1017.47
2018-10-12T07:26:41.852Z,1017.46
2018-10-12T07:27:41.846Z,1017.50
2018-10-12T07:28:41.840Z,1017.47
2018-10-12T07:29:41.842Z,1017.46
2018-10-12T07:30:41.839Z,1017.47
2018-10-12T07:31:41.916Z,1017.46
2018-10-12T07:32:41.833Z,1017.47
2018-10-12T07:33:41.830Z,1017.45
2018-10-12T07:34:41.950Z,1017.48
2018-10-12T07:35:41.829Z,1017.49
2018-10-12T07:36:41.826Z,1017.48
2018-10-12T07:37:41.873Z,1017.48
2018-10-12T07:38:41.822Z,1017.49
2018-10-12T07:39:41.823Z,1017.46
2018-10-12T07:40:41.811Z,1017.53
2018-10-12T07:41:41.815Z,1017.49
2018-10-12T07:42:41.812Z,1017.52
2018-10-12T07:43:41.813Z,1017.53
2018-10-12T07:44:41.811Z,1017.54
2018-10-12T07:45:41.812Z,1017.57
2018-10-12T07:46:41.804Z,1017.64
2018-10-12T07:47:41.805Z,1017.63
2018-10-12T07:48:41.803Z,1017.62
2018-10-12T07:49:41.795Z,1017.67
2018-10-12T07:50:41.795Z,1017.65
2018-10-12T07:51:41.794Z,1017.66
2018-10-12T07:52:41.790Z,1017.71
2018-10-12T07:53:41.804Z,1017.73
2018-10-12T07:54:42.418Z,1017.74
2018-10-12T07:55:41.785Z,1017.79
2018-10-12T07:56:41.790Z,1017.84
2018-10-12T07:57:41.784Z,1017.85
2018-10-12T07:58:41.980Z,1017.88
2018-10-12T07:59:41.779Z,1017.86
2018-10-12T08:00:41.800Z,1017.86
2018-10-12T08:01:41.773Z,1017.88
2018-10-12T08:02:41.774Z,1017.92
2018-10-12T08:03:41.773Z,1017.90
2018-10-12T08:04:41.766Z,1017.91
2018-10-12T08:05:41.768Z,1017.92
2018-10-12T08:06:41.832Z,1017.90
2018-10-12T08:07:41.766Z,1017.85
2018-10-12T08:08:41.770Z,1017.84
2018-10-12T08:09:41.805Z,1017.82
2018-10-12T08:10:41.763Z,1017.79
2018-10-12T08:11:41.760Z,1017.77
2018-10-12T08:12:41.757Z,1017.78
2018-10-12T08:13:41.830Z,1017.83
2018-10-12T08:14:41.756Z,1017.85
2018-10-12T08:15:41.752Z,1017.88
2018-10-12T08:16:41.751Z,1017.90
2018-10-12T08:17:41.752Z,1017.91
2018-10-12T08:18:41.747Z,1017.96
2018-10-12T08:19:41.746Z,1018.02
2018-10-12T08:20:41.746Z,1018.05
2018-10-12T08:21:41.743Z,1018.12
2018-10-12T08:22:41.744Z,1018.21
2018-10-12T08:23:41.744Z,1018.25
2018-10-12T08:24:41.738Z,1018.25
2018-10-12T08:25:41.739Z,1018.22
2018-10-12T08:26:41.737Z,1018.19
2018-10-12T08:27:42.351Z,1018.18
2018-10-12T08:28:41.735Z,1018.17
2018-10-12T08:29:41.733Z,1018.16
2018-10-12T08:30:41.740Z,1018.18
2018-10-12T08:31:41.742Z,1018.15
2018-10-12T08:32:41.727Z,1018.15
2018-10-12T08:33:41.736Z,1018.17
2018-10-12T08:34:41.735Z,1018.17
2018-10-12T08:35:41.725Z,1018.17
2018-10-12T08:36:41.725Z,1018.21
2018-10-12T08:37:41.724Z,1018.27
2018-10-12T08:38:41.727Z,1018.28
2018-10-12T08:39:41.726Z,1018.30
2018-10-12T08:40:41.719Z,1018.33
2018-10-12T08:41:41.748Z,1018.32
2018-10-12T08:42:41.719Z,1018.32
2018-10-12T08:43:41.720Z,1018.33
2018-10-12T08:44:41.718Z,1018.34
2018-10-12T08:45:41.713Z,1018.40
2018-10-12T08:46:42.356Z,1018.41
2018-10-12T08:47:41.717Z,1018.42
2018-10-12T08:48:41.716Z,1018.40
2018-10-12T08:49:41.711Z,1018.42
2018-10-12T08:50:41.714Z,1018.40
2018-10-12T08:51:41.708Z,1018.38
2018-10-12T08:52:41.707Z,1018.35
2018-10-12T08:53:41.712Z,1018.33
2018-10-12T08:54:41.711Z,1018.33
2018-10-12T08:55:41.708Z,1018.29
2018-10-12T08:56:41.701Z,1018.24
2018-10-12T08:57:41.709Z,1018.25
2018-10-12T08:58:41.709Z,1018.26
2018-10-12T08:59:41.705Z,1018.29
2018-10-12T09:00:41.716Z,1018.32
2018-10-12T09:01:41.698Z,1018.38
2018-10-12T09:02:41.698Z,1018.41
2018-10-12T09:03:41.700Z,1018.44
2018-10-12T09:04:41.707Z,1018.46
2018-10-12T09:05:41.694Z,1018.50
2018-10-12T09:06:41.700Z,1018.51
2018-10-12T09:07:42.362Z,1018.49
2018-10-12T09:08:41.698Z,1018.59
2018-10-12T09:09:41.720Z,1018.57
2018-10-12T09:10:41.700Z,1018.56
2018-10-12T09:11:41.696Z,1018.50
2018-10-12T09:12:41.700Z,1018.52
2018-10-12T09:13:41.691Z,1018.47
2018-10-12T09:14:41.697Z,1018.48
2018-10-12T09:15:41.698Z,1018.52
2018-10-12T09:16:41.693Z,1018.51
2018-10-12T09:17:41.691Z,1018.52
2018-10-12T09:18:41.694Z,1018.52
2018-10-12T09:19:41.695Z,1018.50
2018-10-12T09:20:41.775Z,1018.46
2018-10-12T09:21:41.722Z,1018.46
2018-10-12T09:22:41.693Z,1018.53
2018-10-12T09:23:41.687Z,1018.55
2018-10-12T09:24:41.686Z,1018.57
2018-10-12T09:25:41.698Z,1018.58
2018-10-12T09:26:41.697Z,1018.56
2018-10-12T09:27:41.692Z,1018.54
2018-10-12T09:28:41.710Z,1018.55
2018-10-12T09:29:41.686Z,1018.61
2018-10-12T09:30:41.685Z,1018.62
2018-10-12T09:31:41.687Z,1018.62
2018-10-12T09:32:41.690Z,1018.63
2018-10-12T09:33:41.691Z,1018.65
2018-10-12T09:34:41.688Z,1018.61
2018-10-12T09:35:41.685Z,1018.58
2018-10-12T09:36:41.767Z,1018.58
2018-10-12T09:37:41.704Z,1018.56
2018-10-12T09:38:41.684Z,1018.52
2018-10-12T09:39:41.684Z,1018.58
2018-10-12T09:40:41.684Z,1018.60
2018-10-12T09:41:41.686Z,1018.65
2018-10-12T09:42:41.688Z,1018.65
2018-10-12T09:43:41.687Z,1018.67
2018-10-12T09:44:41.691Z,1018.66
2018-10-12T09:45:41.690Z,1018.68
2018-10-12T09:46:42.377Z,1018.67
2018-10-12T09:47:41.685Z,1018.64
2018-10-12T09:48:41.684Z,1018.66
2018-10-12T09:49:41.684Z,1018.66
2018-10-12T09:50:41.687Z,1018.67
2018-10-12T09:51:41.699Z,1018.71
2018-10-12T09:52:41.718Z,1018.72
2018-10-12T09:53:41.690Z,1018.71
2018-10-12T09:54:41.690Z,1018.68
2018-10-12T09:55:41.687Z,1018.65
2018-10-12T09:56:41.684Z,1018.69
2018-10-12T09:57:41.683Z,1018.70
2018-10-12T09:58:41.688Z,1018.69
2018-10-12T09:59:41.695Z,1018.69
2018-10-12T10:00:41.683Z,1018.70
2018-10-12T10:01:41.698Z,1018.74
2018-10-12T10:02:41.693Z,1018.74
2018-10-12T10:03:41.693Z,1018.76
2018-10-12T10:04:41.684Z,1018.73
2018-10-12T10:05:41.684Z,1018.77
2018-10-12T10:06:41.692Z,1018.77
2018-10-12T10:07:41.773Z,1018.75
2018-10-12T10:08:41.768Z,1018.77
2018-10-12T10:09:41.688Z,1018.78
2018-10-12T10:10:41.686Z,1018.78
2018-10-12T10:11:41.690Z,1018.78
2018-10-12T10:12:41.697Z,1018.75
2018-10-12T10:13:41.706Z,1018.70
2018-10-12T10:14:41.694Z,1018.64
2018-10-12T10:15:41.695Z,1018.61
2018-10-12T10:16:41.702Z,1018.56
2018-10-12T10:17:42.386Z,1018.56
2018-10-12T10:18:41.693Z,1018.57
2018-10-12T10:19:42.462Z,1018.56
2018-10-12T10:20:41.697Z,1018.56
2018-10-12T10:21:41.693Z,1018.58
2018-10-12T10:22:41.699Z,1018.60
2018-10-12T10:23:41.702Z,1018.60
2018-10-12T10:24:41.698Z,1018.61
2018-10-12T10:25:41.695Z,1018.59
2018-10-12T10:26:41.699Z,1018.60
2018-10-12T10:27:41.703Z,1018.59
2018-10-12T10:28:41.696Z,1018.54
2018-10-12T10:29:41.701Z,1018.51
2018-10-12T10:30:41.705Z,1018.51
2018-10-12T10:31:41.708Z,1018.49
2018-10-12T10:32:41.698Z,1018.50
2018-10-12T10:33:41.701Z,1018.51
2018-10-12T10:34:41.705Z,1018.50
2018-10-12T10:35:41.707Z,1018.49
2018-10-12T10:36:41.704Z,1018.46
2018-10-12T10:37:41.702Z,1018.48
2018-10-12T10:38:41.704Z,1018.43
2018-10-12T10:39:41.710Z,1018.43
2018-10-12T10:40:41.718Z,1018.46
2018-10-12T10:41:41.704Z,1018.39
2018-10-12T10:42:41.712Z,1018.44
2018-10-12T10:43:41.712Z,1018.43
2018-10-12T10:44:41.709Z,1018.43
2018-10-12T10:45:41.714Z,1018.43
2018-10-12T10:46:41.716Z,1018.49
2018-10-12T10:47:41.716Z,1018.52
2018-10-12T10:48:41.716Z,1018.56
2018-10-12T10:49:41.726Z,1018.57
2018-10-12T10:50:41.715Z,1018.59
2018-10-12T10:51:41.716Z,1018.62
2018-10-12T10:52:41.717Z,1018.64
2018-10-12T10:53:41.735Z,1018.62
2018-10-12T10:54:41.728Z,1018.59
2018-10-12T10:55:41.723Z,1018.55
2018-10-12T10:56:41.721Z,1018.57
2018-10-12T10:57:41.726Z,1018.52
2018-10-12T10:58:41.731Z,1018.50
2018-10-12T10:59:41.726Z,1018.52
2018-10-12T11:00:41.871Z,1018.51
2018-10-12T11:01:41.729Z,1018.49
2018-10-12T11:02:41.731Z,1018.49
2018-10-12T11:03:41.733Z,1018.45
2018-10-12T11:04:41.731Z,1018.46
2018-10-12T11:05:41.735Z,1018.48
2018-10-12T11:06:41.735Z,1018.43
2018-10-12T11:07:41.742Z,1018.48
2018-10-12T11:08:41.745Z,1018.48
2018-10-12T11:09:41.742Z,1018.43
2018-10-12T11:10:41.754Z,1018.45
2018-10-12T11:11:41.738Z,1018.41
2018-10-12T11:12:41.873Z,1018.43
2018-10-12T11:13:41.747Z,1018.40
2018-10-12T11:14:41.745Z,1018.38
2018-10-12T11:15:41.747Z,1018.44
2018-10-12T11:16:41.744Z,1018.47
2018-10-12T11:17:41.746Z,1018.51
2018-10-12T11:18:41.750Z,1018.52
2018-10-12T11:19:41.814Z,1018.53
2018-10-12T11:20:41.754Z,1018.50
2018-10-12T11:21:41.760Z,1018.51
2018-10-12T11:22:41.773Z,1018.55
2018-10-12T11:23:41.758Z,1018.53
2018-10-12T11:24:41.811Z,1018.54
2018-10-12T11:25:41.760Z,1018.58
2018-10-12T11:26:41.805Z,1018.59
2018-10-12T11:27:41.772Z,1018.61
2018-10-12T11:28:41.764Z,1018.57
2018-10-12T11:29:41.773Z,1018.53
2018-10-12T11:30:41.770Z,1018.48
2018-10-12T11:31:41.776Z,1018.43
2018-10-12T11:32:41.816Z,1018.36
2018-10-12T11:33:41.775Z,1018.37
2018-10-12T11:34:41.773Z,1018.33
2018-10-12T11:35:41.777Z,1018.35
2018-10-12T11:36:41.781Z,1018.39
2018-10-12T11:37:41.782Z,1018.38
2018-10-12T11:38:41.782Z,1018.39
2018-10-12T11:39:41.785Z,1018.45
2018-10-12T11:40:41.793Z,1018.45
2018-10-12T11:41:41.789Z,1018.50
2018-10-12T11:42:41.794Z,1018.52
2018-10-12T11:43:41.794Z,1018.58
2018-10-12T11:44:41.845Z,1018.58
2018-10-12T11:45:41.797Z,1018.54
2018-10-12T11:46:41.797Z,1018.52
2018-10-12T11:47:41.803Z,1018.48
2018-10-12T11:48:41.796Z,1018.46
2018-10-12T11:49:41.801Z,1018.49
2018-10-12T11:50:41.806Z,1018.54
2018-10-12T11:51:41.805Z,1018.53
2018-10-12T11:52:41.804Z,1018.56
2018-10-12T11:53:41.833Z,1018.56
2018-10-12T11:54:41.815Z,1018.54
2018-10-12T11:55:41.822Z,1018.54
2018-10-12T11:56:41.817Z,1018.51
2018-10-12T11:57:41.823Z,1018.52
2018-10-12T11:58:41.818Z,1018.52
2018-10-12T11:59:41.824Z,1018.54
2018-10-12T12:00:41.824Z,1018.52
2018-10-12T12:01:41.826Z,1018.51
2018-10-12T12:02:41.828Z,1018.52
2018-10-12T12:03:41.838Z,1018.57
2018-10-12T12:04:41.828Z,1018.56
2018-10-12T12:05:41.837Z,1018.58